Time;durP1;ratioP1;P1;durP2;ratioP2;P2;SDS_P1;SDS_P2;PMS_P1;PMS_P2;Temp;Humidity;BMP_temperature;BMP_pressure;BME280_temperature;BME280_humidity;BME280_pressure;Samples;Min_cycle;Max_cycle;Signal;HPM_P1;HPM_P2
2021/05/01 00:02:10;;;;;;;9.27;4.18;;;;;;;;;;4989981;28;20033;-71
2021/05/01 00:04:37;;;;;;;12.45;4.00;;;;;;;;;;4988978;28;20040;-71
2021/05/01 00:07:03;;;;;;;8.77;4.10;;;;;;;;;;4990263;28;20023;-71
2021/05/01 00:09:29;;;;;;;13.85;3.90;;;;;;;;;;4993913;28;20447;-71
2021/05/01 00:11:55;;;;;;;10.65;4.03;;;;;;;;;;4990274;28;20022;-71
2021/05/01 00:14:21;;;;;;;9.18;3.72;;;;;;;;;;4989869;28;20035;-71
2021/05/01 00:16:47;;;;;;;8.80;4.20;;;;;;;;;;5021516;28;20417;-71
2021/05/01 00:19:14;;;;;;;9.73;4.13;;;;;;;;;;4990005;28;20079;-71
2021/05/01 00:21:40;;;;;;;11.02;4.40;;;;;;;;;;5002830;28;20031;-71
2021/05/01 00:24:06;;;;;;;12.43;4.20;;;;;;;;;;4989717;28;20034;-71
2021/05/01 00:26:33;;;;;;;11.40;4.13;;;;;;;;;;4990604;28;20029;-70
2021/05/01 00:28:59;;;;;;;8.05;3.75;;;;;;;;;;5009212;28;20025;-70
2021/05/01 00:31:27;;;;;;;8.60;3.67;;;;;;;;;;5025455;28;20094;-71
2021/05/01 00:33:53;;;;;;;8.90;3.67;;;;;;;;;;4989604;28;20026;-71
2021/05/01 00:36:19;;;;;;;9.68;3.67;;;;;;;;;;4989555;28;20030;-71
2021/05/01 00:38:45;;;;;;;8.20;3.78;;;;;;;;;;5021100;28;20037;-71
2021/05/01 00:41:11;;;;;;;10.57;3.97;;;;;;;;;;4989242;28;20033;-71
2021/05/01 00:43:41;;;;;;;11.65;4.07;;;;;;;;;;5022541;28;20034;-71
2021/05/01 00:46:07;;;;;;;9.18;4.28;;;;;;;;;;5009046;28;20048;-70
2021/05/01 00:48:33;;;;;;;11.13;4.30;;;;;;;;;;5008734;28;20076;-71
2021/05/01 00:51:00;;;;;;;9.90;3.92;;;;;;;;;;5008957;28;20641;-71
2021/05/01 00:53:26;;;;;;;6.07;3.22;;;;;;;;;;5009135;28;20034;-71
2021/05/01 00:55:53;;;;;;;11.60;4.32;;;;;;;;;;5009006;28;20022;-70
2021/05/01 00:58:20;;;;;;;7.00;3.88;;;;;;;;;;5040658;28;20513;-71
2021/05/01 01:03:34;;;;;;;7.40;3.95;;;;;;;;;;5008755;28;20100;-70
2021/05/01 01:06:00;;;;;;;8.25;4.13;;;;;;;;;;5022730;28;20049;-70
2021/05/01 01:08:26;;;;;;;9.20;3.60;;;;;;;;;;4988961;28;20095;-71
2021/05/01 01:10:53;;;;;;;7.35;3.95;;;;;;;;;;4990000;28;20033;-70
2021/05/01 01:13:19;;;;;;;8.77;3.78;;;;;;;;;;5011906;28;20034;-70
2021/05/01 01:15:45;;;;;;;6.90;3.88;;;;;;;;;;5012390;28;20056;-71
2021/05/01 01:18:11;;;;;;;6.90;3.70;;;;;;;;;;5011541;28;20033;-70
2021/05/01 01:20:37;;;;;;;9.43;3.58;;;;;;;;;;5012292;28;20105;-70
2021/05/01 01:23:03;;;;;;;7.00;3.72;;;;;;;;;;5011866;28;20084;-70
2021/05/01 01:25:30;;;;;;;6.30;3.55;;;;;;;;;;5012250;28;20482;-71
2021/05/01 01:27:56;;;;;;;7.40;4.13;;;;;;;;;;5011756;28;20022;-71
2021/05/01 01:30:30;;;;;;;9.60;4.18;;;;;;;;;;5009923;28;20018;-70
2021/05/01 01:32:57;;;;;;;7.10;3.75;;;;;;;;;;5011805;28;20041;-71
2021/05/01 01:35:23;;;;;;;8.45;3.90;;;;;;;;;;5010910;28;20022;-71
2021/05/01 01:37:50;;;;;;;6.85;3.30;;;;;;;;;;5011724;28;20030;-71
2021/05/01 01:40:16;;;;;;;8.10;3.70;;;;;;;;;;5043109;28;20424;-71
2021/05/01 01:42:43;;;;;;;6.78;4.05;;;;;;;;;;5010432;28;20045;-71
2021/05/01 01:45:11;;;;;;;6.28;3.47;;;;;;;;;;5011840;28;20052;-70
2021/05/01 01:47:37;;;;;;;9.25;3.95;;;;;;;;;;5010415;28;20061;-70
2021/05/01 01:50:04;;;;;;;6.18;3.78;;;;;;;;;;5009759;28;20025;-70
2021/05/01 01:52:30;;;;;;;8.82;3.92;;;;;;;;;;5010331;28;20021;-70
2021/05/01 01:54:56;;;;;;;9.43;3.97;;;;;;;;;;5010348;28;20022;-71
2021/05/01 01:57:22;;;;;;;7.85;3.67;;;;;;;;;;5011719;28;20071;-70
2021/05/01 01:59:48;;;;;;;8.77;3.80;;;;;;;;;;5011262;28;20030;-70
2021/05/01 02:02:15;;;;;;;7.90;4.15;;;;;;;;;;5010406;28;20474;-70
2021/05/01 02:04:41;;;;;;;8.50;3.70;;;;;;;;;;5010057;28;20460;-71
2021/05/01 02:07:08;;;;;;;6.53;3.63;;;;;;;;;;5011593;28;20018;-71
2021/05/01 02:09:34;;;;;;;7.45;3.42;;;;;;;;;;5010683;28;20734;-71
2021/05/01 02:12:00;;;;;;;7.82;3.53;;;;;;;;;;5011572;28;20047;-70
2021/05/01 02:14:26;;;;;;;7.45;3.60;;;;;;;;;;5011428;28;20022;-70
2021/05/01 02:16:52;;;;;;;6.72;3.58;;;;;;;;;;5042984;28;20028;-70
2021/05/01 02:19:18;;;;;;;6.95;3.65;;;;;;;;;;5011076;28;20032;-71
2021/05/01 02:21:44;;;;;;;6.38;3.75;;;;;;;;;;5042576;28;20385;-70
2021/05/01 02:24:10;;;;;;;7.22;3.22;;;;;;;;;;5010578;28;20106;-70
2021/05/01 02:26:37;;;;;;;8.48;4.05;;;;;;;;;;5041840;28;20028;-70
2021/05/01 02:29:03;;;;;;;8.10;3.78;;;;;;;;;;5010928;28;20394;-71
2021/05/01 02:31:29;;;;;;;6.53;3.58;;;;;;;;;;5011050;28;20515;-70
2021/05/01 02:33:55;;;;;;;7.55;4.05;;;;;;;;;;5011148;28;20035;-70
2021/05/01 02:36:21;;;;;;;6.22;3.53;;;;;;;;;;5010759;28;20543;-70
2021/05/01 02:38:47;;;;;;;6.50;3.25;;;;;;;;;;5010852;28;20029;-70
2021/05/01 02:41:13;;;;;;;11.68;4.05;;;;;;;;;;4992390;28;20079;-70
2021/05/01 02:43:40;;;;;;;7.72;3.63;;;;;;;;;;4992000;28;20034;-70
2021/05/01 02:46:06;;;;;;;7.88;3.78;;;;;;;;;;5022933;28;20025;-70
2021/05/01 02:48:32;;;;;;;7.82;3.47;;;;;;;;;;4990923;28;20411;-70
2021/05/01 02:50:58;;;;;;;7.60;3.63;;;;;;;;;;5022400;28;20034;-70
2021/05/01 02:53:24;;;;;;;8.20;3.72;;;;;;;;;;4990768;28;20033;-70
2021/05/01 02:55:50;;;;;;;8.40;3.55;;;;;;;;;;4990820;28;20018;-70
2021/05/01 02:58:17;;;;;;;6.93;3.47;;;;;;;;;;4990922;28;20027;-70
2021/05/01 03:00:43;;;;;;;8.00;4.20;;;;;;;;;;5001170;28;20123;-70
2021/05/01 03:03:09;;;;;;;18.08;3.90;;;;;;;;;;5010270;28;20045;-70
2021/05/01 03:05:35;;;;;;;5.97;3.60;;;;;;;;;;5010574;28;20565;-70
2021/05/01 03:08:01;;;;;;;6.70;3.50;;;;;;;;;;5009170;28;20117;-70
2021/05/01 03:10:29;;;;;;;8.32;3.47;;;;;;;;;;5008794;28;20033;-70
2021/05/01 03:12:55;;;;;;;6.80;3.42;;;;;;;;;;5009382;28;20356;-70
2021/05/01 03:15:22;;;;;;;6.28;3.80;;;;;;;;;;5009136;28;20065;-70
2021/05/01 03:17:49;;;;;;;6.95;3.90;;;;;;;;;;5009361;28;20014;-70
2021/05/01 03:20:15;;;;;;;7.95;3.63;;;;;;;;;;5010059;28;20018;-71
2021/05/01 03:22:42;;;;;;;7.93;3.50;;;;;;;;;;5009837;28;20385;-70
2021/05/01 03:25:09;;;;;;;7.72;3.22;;;;;;;;;;5010263;28;20022;-70
2021/05/01 03:27:35;;;;;;;6.88;3.55;;;;;;;;;;5010257;28;20029;-71
2021/05/01 03:30:01;;;;;;;6.30;3.35;;;;;;;;;;5010193;28;20026;-71
2021/05/01 03:32:27;;;;;;;8.48;3.63;;;;;;;;;;5007751;28;20406;-71
2021/05/01 03:34:54;;;;;;;6.55;3.25;;;;;;;;;;5040845;28;20382;-71
2021/05/01 03:37:21;;;;;;;6.55;3.72;;;;;;;;;;5010034;28;20123;-70
2021/05/01 03:39:47;;;;;;;9.98;4.03;;;;;;;;;;5003448;28;20053;-70
2021/05/01 03:42:13;;;;;;;7.40;3.65;;;;;;;;;;5000392;28;20402;-70
2021/05/01 03:44:39;;;;;;;5.95;3.33;;;;;;;;;;5008373;28;20452;-70
2021/05/01 03:47:05;;;;;;;7.13;3.40;;;;;;;;;;5008514;28;20014;-70
2021/05/01 03:49:31;;;;;;;5.97;3.63;;;;;;;;;;5010055;28;20033;-70
2021/05/01 03:51:57;;;;;;;8.13;3.65;;;;;;;;;;5006013;28;20028;-71
2021/05/01 03:54:23;;;;;;;9.18;3.63;;;;;;;;;;5009668;28;20037;-70
2021/05/01 03:56:50;;;;;;;6.97;3.45;;;;;;;;;;5008525;28;20015;-71
2021/05/01 03:59:16;;;;;;;6.47;3.35;;;;;;;;;;5009778;28;20030;-71
2021/05/01 04:01:42;;;;;;;6.78;3.38;;;;;;;;;;5009161;28;20025;-71
2021/05/01 04:04:11;;;;;;;6.25;3.20;;;;;;;;;;5009363;28;20693;-70
2021/05/01 04:06:38;;;;;;;6.07;3.65;;;;;;;;;;5009458;28;20037;-71
2021/05/01 04:09:04;;;;;;;7.45;3.25;;;;;;;;;;5008812;28;20083;-71
2021/05/01 04:11:30;;;;;;;7.47;3.58;;;;;;;;;;5009598;28;20045;-70
2021/05/01 04:13:56;;;;;;;5.78;3.45;;;;;;;;;;5009104;28;20030;-71
2021/05/01 04:16:23;;;;;;;7.65;3.80;;;;;;;;;;5009267;28;20026;-71
2021/05/01 04:18:49;;;;;;;6.15;3.35;;;;;;;;;;5009428;28;20022;-70
2021/05/01 04:21:15;;;;;;;6.68;3.25;;;;;;;;;;5009387;28;20037;-71
2021/05/01 04:23:41;;;;;;;7.75;3.63;;;;;;;;;;5008463;28;20041;-71
2021/05/01 04:26:07;;;;;;;9.48;3.88;;;;;;;;;;5007957;28;20022;-71
2021/05/01 04:28:34;;;;;;;5.88;3.35;;;;;;;;;;5040575;28;20038;-71
2021/05/01 04:31:00;;;;;;;7.97;3.92;;;;;;;;;;5008814;28;20519;-70
2021/05/01 04:33:27;;;;;;;6.60;3.70;;;;;;;;;;5007911;28;20022;-70
2021/05/01 04:35:54;;;;;;;6.05;3.53;;;;;;;;;;5007206;28;20474;-71
2021/05/01 04:38:20;;;;;;;6.57;3.30;;;;;;;;;;5008459;28;20022;-70
2021/05/01 04:40:46;;;;;;;7.47;4.07;;;;;;;;;;5008680;28;20474;-70
2021/05/01 04:43:13;;;;;;;7.75;3.53;;;;;;;;;;5027434;28;20042;-71
2021/05/01 04:45:41;;;;;;;7.90;3.67;;;;;;;;;;5007767;28;20087;-70
2021/05/01 04:48:07;;;;;;;6.68;3.50;;;;;;;;;;5008497;28;20042;-70
2021/05/01 04:50:34;;;;;;;8.38;3.78;;;;;;;;;;5008576;28;20542;-70
2021/05/01 04:53:00;;;;;;;7.97;3.70;;;;;;;;;;5008606;28;20382;-71
2021/05/01 04:55:26;;;;;;;6.88;3.53;;;;;;;;;;5008242;28;20061;-72
2021/05/01 04:57:53;;;;;;;5.97;3.65;;;;;;;;;;5008678;28;20030;-71
2021/05/01 05:00:20;;;;;;;6.43;3.30;;;;;;;;;;5007891;28;20014;-71
2021/05/01 05:02:46;;;;;;;6.43;3.92;;;;;;;;;;5008656;28;20044;-71
2021/05/01 05:05:13;;;;;;;8.20;3.70;;;;;;;;;;4995740;28;20054;-70
2021/05/01 05:07:40;;;;;;;8.23;3.85;;;;;;;;;;5005365;28;20030;-71
2021/05/01 05:10:06;;;;;;;8.40;4.00;;;;;;;;;;5008439;28;20063;-71
2021/05/01 05:12:32;;;;;;;10.02;4.30;;;;;;;;;;5008188;28;20062;-71
2021/05/01 05:14:59;;;;;;;9.55;3.70;;;;;;;;;;5007982;28;20030;-71
2021/05/01 05:17:25;;;;;;;7.25;4.07;;;;;;;;;;5007544;28;20037;-71
2021/05/01 05:19:51;;;;;;;7.57;4.10;;;;;;;;;;5008562;28;20022;-71
2021/05/01 05:22:17;;;;;;;7.65;4.13;;;;;;;;;;5008211;28;20029;-71
2021/05/01 05:24:43;;;;;;;8.35;4.90;;;;;;;;;;5008032;28;20037;-71
2021/05/01 05:27:09;;;;;;;7.95;4.82;;;;;;;;;;5008354;28;20045;-71
2021/05/01 05:29:35;;;;;;;7.13;3.85;;;;;;;;;;5039942;28;20183;-71
2021/05/01 05:32:03;;;;;;;10.98;4.28;;;;;;;;;;5008199;28;20046;-71
2021/05/01 05:34:29;;;;;;;9.13;4.38;;;;;;;;;;5038840;28;20026;-71
2021/05/01 05:36:55;;;;;;;8.05;4.60;;;;;;;;;;5039127;28;20026;-71
2021/05/01 05:39:21;;;;;;;10.48;5.05;;;;;;;;;;5007893;28;20080;-71
2021/05/01 05:41:47;;;;;;;7.90;4.30;;;;;;;;;;5008294;28;20021;-71
2021/05/01 05:44:14;;;;;;;11.35;4.70;;;;;;;;;;5039620;28;20064;-71
2021/05/01 05:46:40;;;;;;;8.50;5.10;;;;;;;;;;5007608;28;20030;-71
2021/05/01 05:49:08;;;;;;;12.43;4.70;;;;;;;;;;5007895;28;20030;-70
2021/05/01 05:51:35;;;;;;;11.00;4.40;;;;;;;;;;5005206;28;20048;-71
2021/05/01 05:54:01;;;;;;;12.30;4.80;;;;;;;;;;5007519;28;20460;-71
2021/05/01 05:56:27;;;;;;;11.93;4.75;;;;;;;;;;5006337;28;20121;-71
2021/05/01 05:58:54;;;;;;;9.38;4.95;;;;;;;;;;5010345;28;20022;-71
2021/05/01 06:01:21;;;;;;;9.90;4.97;;;;;;;;;;5011325;28;20032;-71
2021/05/01 06:03:49;;;;;;;10.63;4.68;;;;;;;;;;5010853;28;20125;-70
2021/05/01 06:06:19;;;;;;;8.18;4.65;;;;;;;;;;5011097;28;20359;-71
2021/05/01 06:08:46;;;;;;;10.18;5.28;;;;;;;;;;5010173;28;20026;-71
2021/05/01 06:11:12;;;;;;;9.38;4.93;;;;;;;;;;5011013;28;20050;-71
2021/05/01 06:13:39;;;;;;;11.40;4.72;;;;;;;;;;5011229;28;20022;-71
2021/05/01 06:16:05;;;;;;;11.73;4.57;;;;;;;;;;5010657;28;20032;-71
2021/05/01 06:18:35;;;;;;;10.55;4.85;;;;;;;;;;5009628;28;20033;-70
2021/05/01 06:21:01;;;;;;;10.18;4.78;;;;;;;;;;5009516;28;20511;-70
2021/05/01 06:23:27;;;;;;;11.68;4.50;;;;;;;;;;5009908;28;20034;-71
2021/05/01 06:25:55;;;;;;;12.00;4.45;;;;;;;;;;5034277;28;20026;-70
2021/05/01 06:28:21;;;;;;;7.80;4.40;;;;;;;;;;5010999;28;20452;-70
2021/05/01 06:30:47;;;;;;;8.98;5.10;;;;;;;;;;5042523;28;20045;-70
2021/05/01 06:33:14;;;;;;;10.18;4.63;;;;;;;;;;5010830;28;20030;-70
2021/05/01 06:35:42;;;;;;;19.90;7.28;;;;;;;;;;5003794;28;20027;-70
2021/05/01 06:38:08;;;;;;;32.33;10.15;;;;;;;;;;5024376;28;20167;-70
2021/05/01 06:40:41;;;;;;;36.13;10.40;;;;;;;;;;4996796;28;20021;-69
2021/05/01 06:43:12;;;;;;;48.10;14.00;;;;;;;;;;5010669;28;20083;-70
2021/05/01 06:45:39;;;;;;;62.95;15.40;;;;;;;;;;5011591;28;20028;-69
2021/05/01 06:48:07;;;;;;;48.95;15.68;;;;;;;;;;5029284;28;20066;-70
2021/05/01 06:50:34;;;;;;;46.40;13.07;;;;;;;;;;5029474;28;20060;-70
2021/05/01 06:53:01;;;;;;;43.13;13.90;;;;;;;;;;5028774;28;20032;-70
2021/05/01 06:55:28;;;;;;;43.47;13.45;;;;;;;;;;5013438;28;20057;-70
2021/05/01 06:57:55;;;;;;;43.10;13.00;;;;;;;;;;5009538;28;20060;-70
2021/05/01 07:00:23;;;;;;;37.53;13.35;;;;;;;;;;5008825;28;20492;-69
2021/05/01 07:02:50;;;;;;;38.85;11.43;;;;;;;;;;5010094;28;20116;-69
2021/05/01 07:05:17;;;;;;;31.38;11.10;;;;;;;;;;5009861;28;20026;-69
2021/05/01 07:07:45;;;;;;;37.33;11.18;;;;;;;;;;4996204;28;20149;-69
2021/05/01 07:10:13;;;;;;;38.33;10.00;;;;;;;;;;4991260;28;20023;-70
2021/05/01 07:12:39;;;;;;;31.92;10.85;;;;;;;;;;4990485;28;20064;-70
2021/05/01 07:15:06;;;;;;;33.88;10.45;;;;;;;;;;4996601;28;20078;-70
2021/05/01 07:17:32;;;;;;;37.28;8.88;;;;;;;;;;5010042;28;20415;-69
2021/05/01 07:20:00;;;;;;;32.13;8.95;;;;;;;;;;5041851;28;20036;-70
2021/05/01 07:22:26;;;;;;;32.67;10.93;;;;;;;;;;5032126;28;20119;-69
2021/05/01 07:24:52;;;;;;;49.42;10.13;;;;;;;;;;5009270;28;20471;-71
2021/05/01 07:27:18;;;;;;;45.38;10.73;;;;;;;;;;5015691;28;20113;-74
2021/05/01 07:29:46;;;;;;;26.90;8.50;;;;;;;;;;5013898;28;20021;-71
2021/05/01 07:32:15;;;;;;;34.28;8.30;;;;;;;;;;5012962;28;20044;-73
2021/05/01 07:34:49;;;;;;;32.65;8.07;;;;;;;;;;5016738;28;20010;-71
2021/05/01 07:37:17;;;;;;;25.55;7.90;;;;;;;;;;5019708;28;20029;-73
2021/05/01 07:39:47;;;;;;;29.55;7.78;;;;;;;;;;5008356;28;20022;-74
2021/05/01 07:42:14;;;;;;;36.35;8.00;;;;;;;;;;5002670;28;20026;-71
2021/05/01 07:44:40;;;;;;;40.40;10.10;;;;;;;;;;5008617;28;20105;-71
2021/05/01 07:47:06;;;;;;;40.97;9.10;;;;;;;;;;5007790;28;20075;-71
2021/05/01 07:49:32;;;;;;;30.10;7.85;;;;;;;;;;5006830;28;20030;-73
2021/05/01 07:52:01;;;;;;;29.88;7.47;;;;;;;;;;5007114;28;20022;-74
2021/05/01 07:54:27;;;;;;;32.00;8.23;;;;;;;;;;5008734;28;20080;-71
2021/05/01 07:56:53;;;;;;;23.27;7.65;;;;;;;;;;5009071;28;20456;-74
2021/05/01 07:59:19;;;;;;;34.05;8.45;;;;;;;;;;5009220;28;20021;-78
2021/05/01 08:01:45;;;;;;;29.85;8.55;;;;;;;;;;5008937;28;20013;-72
2021/05/01 08:04:11;;;;;;;30.20;8.40;;;;;;;;;;5007396;28;20037;-71
2021/05/01 08:06:38;;;;;;;26.90;7.43;;;;;;;;;;5008116;28;20113;-71
2021/05/01 08:09:04;;;;;;;22.08;7.25;;;;;;;;;;4998505;28;20069;-71
2021/05/01 08:11:30;;;;;;;32.67;7.47;;;;;;;;;;4989224;28;20027;-73
2021/05/01 08:13:56;;;;;;;29.63;8.27;;;;;;;;;;5001816;28;20105;-72
2021/05/01 08:16:22;;;;;;;24.08;6.85;;;;;;;;;;5023713;28;20026;-71
2021/05/01 08:18:50;;;;;;;22.40;6.75;;;;;;;;;;4989354;28;20057;-73
2021/05/01 08:21:17;;;;;;;21.15;6.35;;;;;;;;;;4988395;28;20018;-71
2021/05/01 08:23:43;;;;;;;19.25;6.18;;;;;;;;;;4995986;28;20072;-71
2021/05/01 08:26:09;;;;;;;17.02;5.85;;;;;;;;;;5004373;28;20079;-72
2021/05/01 08:28:35;;;;;;;16.58;5.88;;;;;;;;;;5008950;28;20018;-71
2021/05/01 08:31:01;;;;;;;14.90;5.35;;;;;;;;;;5040571;28;20059;-75
2021/05/01 08:33:27;;;;;;;19.30;5.57;;;;;;;;;;5008621;28;20034;-75
2021/05/01 08:35:55;;;;;;;17.85;5.93;;;;;;;;;;5008894;28;20029;-69
2021/05/01 08:38:22;;;;;;;15.77;5.10;;;;;;;;;;5008628;28;20108;-72
2021/05/01 08:40:48;;;;;;;15.90;5.65;;;;;;;;;;4996754;28;20022;-72
2021/05/01 08:43:14;;;;;;;17.88;4.97;;;;;;;;;;4989287;28;20072;-74
2021/05/01 08:45:41;;;;;;;14.63;5.10;;;;;;;;;;5007057;28;20038;-72
2021/05/01 08:48:07;;;;;;;15.00;4.95;;;;;;;;;;5008797;28;20018;-71
2021/05/01 08:50:42;;;;;;;15.48;5.20;;;;;;;;;;5008489;28;20033;-71
2021/05/01 08:53:08;;;;;;;13.05;4.82;;;;;;;;;;5008320;28;20026;-73
2021/05/01 08:55:35;;;;;;;16.38;5.30;;;;;;;;;;5008643;28;20044;-71
2021/05/01 08:58:02;;;;;;;12.63;4.75;;;;;;;;;;5005547;28;20026;-71
2021/05/01 09:00:29;;;;;;;14.25;4.75;;;;;;;;;;4997735;28;20029;-71
2021/05/01 09:02:56;;;;;;;11.90;3.90;;;;;;;;;;5011357;28;20113;-72
2021/05/01 09:05:25;;;;;;;16.23;4.85;;;;;;;;;;4995356;28;20424;-77
2021/05/01 09:07:51;;;;;;;11.20;4.07;;;;;;;;;;5022925;28;20107;-73
2021/05/01 09:10:17;;;;;;;11.15;4.30;;;;;;;;;;5026786;28;20025;-78
2021/05/01 09:12:45;;;;;;;12.68;4.65;;;;;;;;;;5026498;28;20497;-70
2021/05/01 09:15:35;;;;;;;9.13;3.90;;;;;;;;;;5005919;28;20018;-71
2021/05/01 09:18:03;;;;;;;11.77;3.60;;;;;;;;;;5008498;28;20022;-73
2021/05/01 09:20:29;;;;;;;10.27;3.70;;;;;;;;;;5008135;28;20489;-72
2021/05/01 09:23:03;;;;;;;9.20;3.53;;;;;;;;;;5008003;28;20080;-77
2021/05/01 09:25:31;;;;;;;8.10;3.28;;;;;;;;;;5007173;28;20029;-70
2021/05/01 09:28:00;;;;;;;11.05;4.00;;;;;;;;;;5008391;28;20014;-70
2021/05/01 09:30:33;;;;;;;9.23;3.50;;;;;;;;;;5007915;28;20049;-71
2021/05/01 09:33:25;;;;;;;9.52;3.20;;;;;;;;;;4991072;28;20071;-71
2021/05/01 09:36:17;;;;;;;8.50;3.23;;;;;;;;;;4992115;28;20031;-73
2021/05/01 09:38:48;;;;;;;7.22;3.03;;;;;;;;;;5002745;28;20292;-78
2021/05/01 09:41:23;;;;;;;9.40;3.08;;;;;;;;;;5011049;28;20027;-71
2021/05/01 09:43:57;;;;;;;5.97;3.10;;;;;;;;;;5010298;28;20041;-71
2021/05/01 09:46:23;;;;;;;7.20;2.95;;;;;;;;;;4991659;28;20124;-71
2021/05/01 09:49:03;;;;;;;7.25;2.90;;;;;;;;;;5003109;28;20057;-72
2021/05/01 09:51:33;;;;;;;5.05;2.40;;;;;;;;;;5011241;28;20065;-71
2021/05/01 09:53:59;;;;;;;7.72;2.58;;;;;;;;;;5011491;28;20026;-81
2021/05/01 09:56:27;;;;;;;5.63;2.42;;;;;;;;;;5010973;28;20030;-71
2021/05/01 09:58:53;;;;;;;6.72;2.50;;;;;;;;;;5011235;28;20030;-75
2021/05/01 10:01:19;;;;;;;8.48;3.15;;;;;;;;;;5011379;28;20545;-75
2021/05/01 10:03:46;;;;;;;5.32;2.30;;;;;;;;;;5011057;28;20037;-71
2021/05/01 10:06:14;;;;;;;6.20;2.20;;;;;;;;;;5010430;28;20057;-77
2021/05/01 10:08:41;;;;;;;5.22;2.38;;;;;;;;;;5009818;28;20439;-71
2021/05/01 10:11:12;;;;;;;4.68;2.03;;;;;;;;;;5011012;28;20018;-71
2021/05/01 10:13:47;;;;;;;6.40;2.55;;;;;;;;;;5010856;28;20018;-73
2021/05/01 10:16:13;;;;;;;7.03;2.47;;;;;;;;;;5010759;28;20104;-77
2021/05/01 10:18:39;;;;;;;4.32;1.98;;;;;;;;;;5010741;28;20476;-71
2021/05/01 10:21:05;;;;;;;5.03;2.10;;;;;;;;;;5010831;28;20623;-81
2021/05/01 10:23:31;;;;;;;4.25;2.13;;;;;;;;;;5027413;28;20165;-71
2021/05/01 10:26:12;;;;;;;4.70;2.00;;;;;;;;;;5010807;28;20018;-79
2021/05/01 10:28:46;;;;;;;6.78;2.30;;;;;;;;;;5009513;28;20505;-70
2021/05/01 10:31:13;;;;;;;4.25;1.90;;;;;;;;;;5010468;28;20132;-71
2021/05/01 10:33:44;;;;;;;5.22;2.08;;;;;;;;;;5009218;28;20117;-71
2021/05/01 10:36:13;;;;;;;4.95;1.73;;;;;;;;;;5011010;28;20026;-72
2021/05/01 10:38:39;;;;;;;3.88;2.03;;;;;;;;;;5009690;28;20080;-72
2021/05/01 10:41:07;;;;;;;4.60;1.88;;;;;;;;;;5024972;28;20035;-77
2021/05/01 10:43:35;;;;;;;4.72;1.90;;;;;;;;;;4990243;28;20034;-71
2021/05/01 10:46:06;;;;;;;3.90;1.95;;;;;;;;;;5022328;28;20029;-71
2021/05/01 10:48:52;;;;;;;5.75;2.10;;;;;;;;;;4989452;28;20029;-73
2021/05/01 10:51:22;;;;;;;5.07;1.70;;;;;;;;;;4990627;28;20027;-73
2021/05/01 10:54:05;;;;;;;4.95;2.05;;;;;;;;;;4990620;28;20027;-71
2021/05/01 10:56:32;;;;;;;4.88;1.90;;;;;;;;;;4999245;28;20441;-71
2021/05/01 10:58:59;;;;;;;3.83;1.67;;;;;;;;;;5010304;28;20030;-71
2021/05/01 11:01:32;;;;;;;3.45;1.63;;;;;;;;;;5010368;28;20076;-71
2021/05/01 11:04:00;;;;;;;3.83;1.50;;;;;;;;;;5010189;28;20034;-71
2021/05/01 11:06:27;;;;;;;5.85;1.73;;;;;;;;;;5005874;28;20015;-71
2021/05/01 11:08:59;;;;;;;3.08;1.60;;;;;;;;;;5010179;28;20109;-72
2021/05/01 11:11:30;;;;;;;3.50;1.40;;;;;;;;;;5010080;28;20504;-72
2021/05/01 11:13:56;;;;;;;5.13;1.50;;;;;;;;;;4998007;28;20022;-70
2021/05/01 11:16:23;;;;;;;3.17;1.50;;;;;;;;;;5001427;28;20281;-71
2021/05/01 11:18:50;;;;;;;3.65;1.55;;;;;;;;;;5009845;28;20109;-71
2021/05/01 11:21:17;;;;;;;3.90;1.73;;;;;;;;;;5009952;28;20029;-71
2021/05/01 11:23:43;;;;;;;3.00;1.45;;;;;;;;;;5009888;28;20034;-72
2021/05/01 11:26:10;;;;;;;4.28;1.60;;;;;;;;;;5009473;28;20025;-74
2021/05/01 11:28:39;;;;;;;5.95;1.90;;;;;;;;;;5009797;28;20038;-72
2021/05/01 11:31:05;;;;;;;3.67;1.52;;;;;;;;;;5008821;28;20615;-72
2021/05/01 11:33:33;;;;;;;3.63;1.48;;;;;;;;;;5040940;28;20075;-71
2021/05/01 11:35:59;;;;;;;4.22;1.73;;;;;;;;;;5009504;28;20294;-74
2021/05/01 11:38:25;;;;;;;3.63;1.50;;;;;;;;;;5007739;28;20026;-71
2021/05/01 11:40:53;;;;;;;3.72;1.48;;;;;;;;;;4994269;28;20019;-73
2021/05/01 11:43:20;;;;;;;4.65;1.73;;;;;;;;;;4990147;28;20030;-70
2021/05/01 11:45:52;;;;;;;2.95;1.40;;;;;;;;;;5004786;28;20136;-71
2021/05/01 11:48:25;;;;;;;4.13;1.50;;;;;;;;;;5040314;28;20026;-70
2021/05/01 11:50:51;;;;;;;4.78;1.60;;;;;;;;;;5041303;28;20030;-71
2021/05/01 11:53:47;;;;;;;4.05;1.88;;;;;;;;;;5009335;28;20489;-71
2021/05/01 11:56:22;;;;;;;3.72;1.65;;;;;;;;;;5006052;28;20096;-74
2021/05/01 11:58:48;;;;;;;3.55;1.50;;;;;;;;;;5021037;28;20054;-70
2021/05/01 12:01:19;;;;;;;2.65;1.40;;;;;;;;;;4989695;28;20432;-71
2021/05/01 12:04:14;;;;;;;4.65;1.80;;;;;;;;;;4992115;28;20046;-70
2021/05/01 12:06:46;;;;;;;2.80;1.38;;;;;;;;;;5015985;28;20038;-73
2021/05/01 12:09:15;;;;;;;3.78;1.58;;;;;;;;;;5007954;28;20034;-74
2021/05/01 12:11:44;;;;;;;3.75;1.63;;;;;;;;;;5008871;28;20022;-70
2021/05/01 12:14:11;;;;;;;2.72;1.30;;;;;;;;;;5009180;28;20026;-71
2021/05/01 12:16:38;;;;;;;3.35;1.50;;;;;;;;;;5007381;28;20038;-71
2021/05/01 12:19:04;;;;;;;4.20;1.70;;;;;;;;;;5008911;28;20516;-74
2021/05/01 12:21:32;;;;;;;3.05;1.40;;;;;;;;;;5031797;28;20124;-72
2021/05/01 12:23:59;;;;;;;3.95;1.45;;;;;;;;;;5020883;28;20041;-71
2021/05/01 12:26:35;;;;;;;3.40;1.63;;;;;;;;;;5023939;28;20036;-75
2021/05/01 12:29:23;;;;;;;4.15;1.50;;;;;;;;;;5009016;28;20098;-74
2021/05/01 12:31:56;;;;;;;2.75;1.55;;;;;;;;;;5008592;28;20087;-74
2021/05/01 12:34:43;;;;;;;3.40;1.70;;;;;;;;;;5008939;28;20026;-71
2021/05/01 12:37:11;;;;;;;4.45;1.58;;;;;;;;;;5008532;28;20046;-70
2021/05/01 12:39:38;;;;;;;3.72;1.67;;;;;;;;;;4995292;28;20424;-71
2021/05/01 12:42:18;;;;;;;3.13;1.40;;;;;;;;;;5008436;28;20030;-71
2021/05/01 12:44:47;;;;;;;4.47;1.50;;;;;;;;;;5040313;28;20038;-73
2021/05/01 12:47:33;;;;;;;4.60;1.83;;;;;;;;;;5008426;28;20083;-72
2021/05/01 12:50:22;;;;;;;4.38;1.75;;;;;;;;;;5008781;28;20068;-71
2021/05/01 12:52:49;;;;;;;3.95;1.50;;;;;;;;;;5008453;28;20493;-71
2021/05/01 12:55:15;;;;;;;4.28;1.50;;;;;;;;;;5007486;28;20022;-72
2021/05/01 12:57:41;;;;;;;4.20;1.58;;;;;;;;;;5008002;28;20034;-70
2021/05/01 13:00:34;;;;;;;4.72;1.85;;;;;;;;;;5007056;28;20022;-72
2021/05/01 13:03:13;;;;;;;4.47;1.55;;;;;;;;;;5007678;28;20042;-77
2021/05/01 13:05:40;;;;;;;3.10;1.20;;;;;;;;;;5008364;28;20018;-75
2021/05/01 13:08:06;;;;;;;3.47;1.40;;;;;;;;;;5003246;28;20026;-75
2021/05/01 13:10:33;;;;;;;4.30;1.35;;;;;;;;;;5043507;28;20014;-78
2021/05/01 13:13:01;;;;;;;4.78;1.50;;;;;;;;;;5030548;28;20034;-71
2021/05/01 13:15:28;;;;;;;3.83;1.55;;;;;;;;;;4992368;28;20025;-71
2021/05/01 13:18:04;;;;;;;3.50;1.50;;;;;;;;;;5008382;28;20112;-72
2021/05/01 13:20:30;;;;;;;4.95;1.55;;;;;;;;;;5011516;28;20014;-71
2021/05/01 13:23:00;;;;;;;3.72;1.30;;;;;;;;;;4994219;28;20060;-79
2021/05/01 13:25:27;;;;;;;6.88;1.52;;;;;;;;;;5011824;28;20022;-71
2021/05/01 13:27:54;;;;;;;4.47;1.77;;;;;;;;;;5011427;28;20063;-71
2021/05/01 13:30:21;;;;;;;3.50;1.60;;;;;;;;;;5010478;28;20458;-72
2021/05/01 13:32:47;;;;;;;3.42;1.30;;;;;;;;;;5011678;28;20069;-71
2021/05/01 13:35:14;;;;;;;3.95;1.42;;;;;;;;;;5011667;28;20061;-71
2021/05/01 13:37:40;;;;;;;4.65;1.65;;;;;;;;;;5011525;28;20030;-72
2021/05/01 13:40:20;;;;;;;5.47;1.65;;;;;;;;;;5011480;28;20186;-74
2021/05/01 13:42:46;;;;;;;2.70;1.17;;;;;;;;;;5011201;28;20025;-71
2021/05/01 13:45:13;;;;;;;6.07;1.80;;;;;;;;;;5011568;28;20034;-74
2021/05/01 13:47:40;;;;;;;3.80;1.45;;;;;;;;;;5023866;28;20026;-73
2021/05/01 13:50:09;;;;;;;3.30;1.50;;;;;;;;;;5000590;28;20086;-71
2021/05/01 13:52:38;;;;;;;2.60;1.17;;;;;;;;;;5009858;28;20111;-71
2021/05/01 13:55:16;;;;;;;2.95;1.30;;;;;;;;;;5009726;28;20018;-73
2021/05/01 13:57:43;;;;;;;4.65;1.50;;;;;;;;;;5009456;28;20029;-74
2021/05/01 14:00:12;;;;;;;3.50;1.25;;;;;;;;;;5011051;28;20017;-71
2021/05/01 14:02:41;;;;;;;3.22;1.27;;;;;;;;;;5008750;28;20039;-73
2021/05/01 14:05:08;;;;;;;5.78;1.45;;;;;;;;;;5042801;28;20146;-71
2021/05/01 14:07:35;;;;;;;5.03;1.50;;;;;;;;;;5011042;28;20022;-73
2021/05/01 14:10:01;;;;;;;4.32;1.50;;;;;;;;;;5010629;28;20026;-72
2021/05/01 14:12:30;;;;;;;3.45;1.30;;;;;;;;;;5009427;28;20374;-71
2021/05/01 14:14:57;;;;;;;2.95;1.35;;;;;;;;;;5010889;28;20026;-74
2021/05/01 14:17:26;;;;;;;3.88;1.48;;;;;;;;;;5011002;28;20018;-78
2021/05/01 14:19:56;;;;;;;3.97;1.38;;;;;;;;;;5008572;28;20025;-73
2021/05/01 14:22:23;;;;;;;3.75;1.23;;;;;;;;;;5042666;28;20026;-71
2021/05/01 14:24:49;;;;;;;4.93;1.48;;;;;;;;;;5010620;28;20033;-71
2021/05/01 14:27:16;;;;;;;4.18;1.38;;;;;;;;;;5010750;28;20018;-72
2021/05/01 14:29:59;;;;;;;3.92;1.40;;;;;;;;;;5010269;28;20090;-73
2021/05/01 14:32:26;;;;;;;4.10;1.50;;;;;;;;;;5009357;28;20486;-71
2021/05/01 14:34:53;;;;;;;5.35;1.67;;;;;;;;;;5010394;28;20034;-71
2021/05/01 14:37:20;;;;;;;4.07;1.73;;;;;;;;;;5009834;28;20026;-77
2021/05/01 14:39:47;;;;;;;3.92;1.30;;;;;;;;;;5003536;28;20043;-71
2021/05/01 14:42:13;;;;;;;4.30;1.42;;;;;;;;;;4990787;28;20026;-72
2021/05/01 14:44:40;;;;;;;5.78;1.48;;;;;;;;;;5022456;28;20371;-73
2021/05/01 14:47:11;;;;;;;3.28;1.13;;;;;;;;;;4990961;28;20034;-76